CYNL

METAR CYNL 221200Z AUTO ///// 9SM CLR M19/M23 A2980 RMK AO1 SLP164
METAR
LOCATION
CYNL
DATE - TIME
221200Z
WIND
VISIBILITY
9SM
RUNWAY VISUAL RANGE
NOT REPORTED
WEATHER
CLOUDINESS
CLR
TEMP / DEWPOINT
-19 ºC / -23 ºC
ALTIMETER
29.80 in. Hg
RECENT WEATHER
NOT REPORTED
WIND SHEAR
NOT REPORTED
REMARKS
RMK AO1 SLP164
SEA LEVEL PRESSURE: hPa

CYNL

METAR CYNL 221100Z AUTO 19007KT 9SM CLR M19/M22 A2981 RMK AO1 PRESFR SLP162
METAR
LOCATION
CYNL
DATE - TIME
221100Z
WIND
190 TRUE @ 7 KNOTS
VISIBILITY
9SM
RUNWAY VISUAL RANGE
NOT REPORTED
WEATHER
CLOUDINESS
CLR
TEMP / DEWPOINT
-19 ºC / -22 ºC
ALTIMETER
29.81 in. Hg
RECENT WEATHER
NOT REPORTED
WIND SHEAR
NOT REPORTED
REMARKS
RMK AO1 PRESFR SLP162
SEA LEVEL PRESSURE: hPa

CYNL

METAR CYNL 221000Z AUTO 20005KT 9SM CLR M19/M22 A2984 RMK AO1 PRESFR SLP171
METAR
LOCATION
CYNL
DATE - TIME
221000Z
WIND
200 TRUE @ 5 KNOTS
VISIBILITY
9SM
RUNWAY VISUAL RANGE
NOT REPORTED
WEATHER
CLOUDINESS
CLR
TEMP / DEWPOINT
-19 ºC / -22 ºC
ALTIMETER
29.84 in. Hg
RECENT WEATHER
NOT REPORTED
WIND SHEAR
NOT REPORTED
REMARKS
RMK AO1 PRESFR SLP171
SEA LEVEL PRESSURE: hPa

Your time UTC time
 
 
Weather data provided by AXYS Technologies Inc., www.axystechnologies.com
 
Station History